createdAt,value
2022-08-08T00:02:03.994Z,99.90
2022-08-08T00:06:04.484Z,99.90
2022-08-08T00:08:49.572Z,99.90
2022-08-08T00:11:32.784Z,99.90
2022-08-08T00:14:48.209Z,99.90
2022-08-08T00:18:02.664Z,99.90
2022-08-08T00:21:16.568Z,99.90
2022-08-08T00:23:51.843Z,99.90
2022-08-08T00:26:44.581Z,99.90
2022-08-08T00:29:45.534Z,99.90
2022-08-08T00:32:36.619Z,99.90
2022-08-08T00:38:02.477Z,99.90
2022-08-08T00:42:34.615Z,99.90
2022-08-08T00:48:29.353Z,99.90
2022-08-08T00:54:33.174Z,99.90
2022-08-08T01:00:05.022Z,99.90
2022-08-08T01:04:01.558Z,99.90
2022-08-08T01:10:42.039Z,99.90
2022-08-08T01:13:52.964Z,99.90
2022-08-08T01:18:52.909Z,99.90
2022-08-08T01:26:13.126Z,99.90
2022-08-08T01:35:11.269Z,99.90
2022-08-08T01:38:14.951Z,99.90
2022-08-08T01:41:52.542Z,99.90
2022-08-08T01:46:08.309Z,99.90
2022-08-08T01:49:14.246Z,99.90
2022-08-08T01:53:54.155Z,99.90
2022-08-08T02:00:01.011Z,99.90
2022-08-08T02:02:59.272Z,99.90
2022-08-08T02:07:25.404Z,99.90
2022-08-08T02:11:59.575Z,99.90
2022-08-08T02:16:01.572Z,99.90
2022-08-08T02:18:44.271Z,99.90
2022-08-08T02:22:00.172Z,99.90
2022-08-08T02:27:42.114Z,99.90
2022-08-08T02:30:21.703Z,99.90
2022-08-08T02:34:38.680Z,99.90
2022-08-08T02:38:32.852Z,99.90
2022-08-08T02:41:58.830Z,99.90
2022-08-08T02:50:35.635Z,99.90
2022-08-08T02:53:27.567Z,99.90
2022-08-08T02:56:34.425Z,99.90
2022-08-08T03:00:50.900Z,99.90
2022-08-08T03:05:21.220Z,99.90
2022-08-08T03:08:32.378Z,99.90
2022-08-08T03:12:02.168Z,99.90
2022-08-08T03:17:39.008Z,99.90
2022-08-08T03:20:08.169Z,99.90
2022-08-08T03:22:57.028Z,99.90
2022-08-08T03:25:35.572Z,99.90
2022-08-08T03:28:21.028Z,99.90
2022-08-08T03:30:49.049Z,99.90
2022-08-08T03:33:56.802Z,99.90
2022-08-08T03:36:27.556Z,99.90
2022-08-08T03:39:07.486Z,99.90
2022-08-08T03:42:28.188Z,99.90
2022-08-08T03:44:58.526Z,99.90
2022-08-08T03:47:39.382Z,99.90
2022-08-08T03:50:20.191Z,99.90
2022-08-08T03:52:50.949Z,99.90
2022-08-08T03:55:56.448Z,99.90
2022-08-08T03:58:36.418Z,99.90
2022-08-08T04:01:24.033Z,99.90
2022-08-08T04:03:58.835Z,99.90
2022-08-08T04:06:29.922Z,99.90
2022-08-08T04:08:57.874Z,99.90
2022-08-08T04:11:25.392Z,99.90
2022-08-08T04:14:03.122Z,99.90
2022-08-08T04:16:46.299Z,99.90
2022-08-08T04:19:25.496Z,99.90
2022-08-08T04:21:54.236Z,99.90
2022-08-08T04:24:29.438Z,99.90
2022-08-08T04:26:59.061Z,99.90
2022-08-08T04:29:26.479Z,99.90
2022-08-08T04:31:59.530Z,99.90
2022-08-08T04:34:32.443Z,99.90
2022-08-08T04:37:09.809Z,99.90
2022-08-08T04:40:03.480Z,99.90
2022-08-08T04:42:34.369Z,99.90
2022-08-08T04:45:04.132Z,99.90
2022-08-08T04:47:30.516Z,99.90
2022-08-08T04:50:00.768Z,99.90
2022-08-08T04:52:34.028Z,99.90
2022-08-08T04:55:01.904Z,99.90
2022-08-08T04:57:28.250Z,99.90
2022-08-08T04:59:55.339Z,99.90
2022-08-08T05:02:28.592Z,99.90
2022-08-08T05:05:00.694Z,99.90
2022-08-08T05:07:38.136Z,99.90
2022-08-08T05:10:12.784Z,99.90
2022-08-08T05:12:43.083Z,99.90
2022-08-08T05:16:36.355Z,99.90
2022-08-08T05:20:10.852Z,99.90
2022-08-08T05:22:41.137Z,99.90
2022-08-08T05:25:08.494Z,99.90
2022-08-08T05:27:41.515Z,99.90
2022-08-08T05:30:11.456Z,99.90
2022-08-08T05:32:38.549Z,99.90
2022-08-08T05:35:06.742Z,99.90
2022-08-08T05:37:52.676Z,99.90
2022-08-08T05:40:28.298Z,99.90
2022-08-08T05:43:38.844Z,99.90
2022-08-08T05:46:09.091Z,99.90
2022-08-08T05:48:37.723Z,99.90
2022-08-08T05:51:12.774Z,99.90
2022-08-08T05:54:26.012Z,99.90
2022-08-08T05:56:55.861Z,99.90
2022-08-08T05:59:58.952Z,99.90
2022-08-08T06:02:48.724Z,99.90
2022-08-08T06:05:35.621Z,99.90
2022-08-08T06:08:09.755Z,99.90
2022-08-08T06:10:58.075Z,99.90
2022-08-08T06:13:26.768Z,99.90
2022-08-08T06:16:02.984Z,99.90
2022-08-08T06:18:29.821Z,99.90
2022-08-08T06:20:59.011Z,99.90
2022-08-08T06:23:48.688Z,99.90
2022-08-08T06:26:43.328Z,99.90
2022-08-08T06:29:48.837Z,99.90
2022-08-08T06:32:30.735Z,99.90
2022-08-08T06:36:04.159Z,99.90
2022-08-08T06:38:37.738Z,99.90
2022-08-08T06:41:07.771Z,99.90
2022-08-08T06:43:47.512Z,99.90
2022-08-08T06:46:24.252Z,99.90
2022-08-08T06:48:51.626Z,99.90
2022-08-08T06:51:18.372Z,99.90
2022-08-08T06:53:51.067Z,99.90
2022-08-08T06:56:24.589Z,99.90
2022-08-08T06:58:52.593Z,99.90
2022-08-08T07:02:16.672Z,99.90
2022-08-08T07:05:07.854Z,96.90
2022-08-08T07:08:58.542Z,99.10
2022-08-08T07:11:30.221Z,93.60
2022-08-08T07:14:16.729Z,86.00
2022-08-08T07:17:09.494Z,92.20
2022-08-08T07:19:55.987Z,89.90
2022-08-08T07:22:41.566Z,93.40
2022-08-08T07:25:10.419Z,90.80
2022-08-08T07:28:00.676Z,78.00
2022-08-08T07:30:35.726Z,75.70
2022-08-08T07:33:02.751Z,75.00
2022-08-08T07:35:31.025Z,71.20
2022-08-08T07:38:04.733Z,73.00
2022-08-08T07:40:37.346Z,71.40
2022-08-08T07:43:09.651Z,72.30
2022-08-08T07:46:05.584Z,71.40
2022-08-08T07:48:50.678Z,65.10
2022-08-08T07:51:23.105Z,57.40
2022-08-08T07:54:49.711Z,61.70
2022-08-08T07:57:50.529Z,57.30
2022-08-08T08:00:28.074Z,57.80
2022-08-08T08:03:20.480Z,62.90
2022-08-08T08:05:51.682Z,65.10
2022-08-08T08:08:25.425Z,60.20
2022-08-08T08:10:56.615Z,60.40
2022-08-08T08:14:09.740Z,54.20
2022-08-08T08:16:41.363Z,55.90
2022-08-08T08:19:09.925Z,54.30
2022-08-08T08:21:57.132Z,50.30
2022-08-08T08:24:30.678Z,57.30
2022-08-08T08:27:00.109Z,53.30
2022-08-08T08:29:30.995Z,55.00
2022-08-08T08:31:57.925Z,57.40
2022-08-08T08:34:32.145Z,54.00
2022-08-08T08:37:07.661Z,50.80
2022-08-08T08:39:59.522Z,48.30
2022-08-08T08:42:35.363Z,51.90
2022-08-08T08:45:16.452Z,55.20
2022-08-08T08:47:49.734Z,55.50
2022-08-08T08:50:33.336Z,53.60
2022-08-08T08:53:28.061Z,54.40
2022-08-08T08:56:25.027Z,50.00
2022-08-08T08:58:51.645Z,52.40
2022-08-08T09:01:21.217Z,54.20
2022-08-08T09:03:50.735Z,54.70
2022-08-08T09:06:33.936Z,49.30
2022-08-08T09:09:37.520Z,56.60
2022-08-08T09:12:15.036Z,57.30
2022-08-08T09:14:42.477Z,55.10
2022-08-08T09:17:28.708Z,55.00
2022-08-08T09:21:58.842Z,56.30
2022-08-08T09:24:32.670Z,53.50
2022-08-08T09:27:20.032Z,61.50
2022-08-08T09:30:14.526Z,58.10
2022-08-08T09:33:01.396Z,60.60
2022-08-08T09:35:48.852Z,59.50
2022-08-08T09:38:32.650Z,58.00
2022-08-08T09:41:03.923Z,58.10
2022-08-08T09:44:05.362Z,57.70
2022-08-08T09:46:38.714Z,53.60
2022-08-08T09:49:41.468Z,56.70
2022-08-08T09:52:16.042Z,53.40
2022-08-08T09:54:44.095Z,55.60
2022-08-08T09:57:16.067Z,52.40
2022-08-08T10:00:01.839Z,52.10
2022-08-08T10:02:54.901Z,54.80
2022-08-08T10:05:25.613Z,50.00
2022-08-08T10:07:59.959Z,51.50
2022-08-08T10:10:41.720Z,52.70
2022-08-08T10:13:22.791Z,52.00
2022-08-08T10:16:01.006Z,56.80
2022-08-08T10:18:35.515Z,52.60
2022-08-08T10:21:25.206Z,52.80
2022-08-08T10:23:59.717Z,49.50
2022-08-08T10:26:57.455Z,51.90
2022-08-08T10:36:22.594Z,52.80
2022-08-08T10:38:51.529Z,55.40
2022-08-08T10:41:20.037Z,54.50
2022-08-08T10:43:49.434Z,54.20
2022-08-08T10:46:29.995Z,54.20
2022-08-08T10:48:59.335Z,50.00
2022-08-08T10:51:40.812Z,51.50
2022-08-08T10:54:20.544Z,50.40
2022-08-08T10:56:58.469Z,49.30
2022-08-08T10:59:26.606Z,47.60
2022-08-08T11:01:57.646Z,50.30
2022-08-08T11:04:29.463Z,44.20
2022-08-08T11:07:00.424Z,46.50
2022-08-08T11:09:26.924Z,47.30
2022-08-08T11:12:12.876Z,45.00
2022-08-08T11:14:59.376Z,45.70
2022-08-08T11:17:59.849Z,44.30
2022-08-08T11:20:29.615Z,45.30
2022-08-08T11:22:59.135Z,50.20
2022-08-08T11:25:52.169Z,43.30
2022-08-08T11:28:24.953Z,44.10
2022-08-08T11:30:57.251Z,47.10
2022-08-08T11:33:52.348Z,53.50
2022-08-08T11:36:27.951Z,46.40
2022-08-08T11:38:56.136Z,47.60
2022-08-08T11:41:24.494Z,46.80
2022-08-08T11:43:57.705Z,39.60
2022-08-08T11:46:25.734Z,37.60
2022-08-08T11:48:54.989Z,38.00
2022-08-08T11:51:30.268Z,42.50
2022-08-08T11:54:09.693Z,40.80
2022-08-08T11:56:56.333Z,49.10
2022-08-08T12:00:01.368Z,48.00
2022-08-08T12:02:33.480Z,49.10
2022-08-08T12:05:05.843Z,47.40
2022-08-08T12:09:28.109Z,50.80
2022-08-08T12:12:28.461Z,49.20
2022-08-08T12:15:05.093Z,45.30
2022-08-08T12:17:36.683Z,48.70
2022-08-08T12:20:07.032Z,51.00
2022-08-08T12:22:39.986Z,48.60
2022-08-08T12:25:30.906Z,52.00
2022-08-08T12:28:15.453Z,51.00
2022-08-08T12:30:49.959Z,51.90
2022-08-08T12:33:19.008Z,51.70
2022-08-08T12:35:52.403Z,49.10
2022-08-08T12:38:20.177Z,48.90
2022-08-08T12:41:00.099Z,49.00
2022-08-08T12:43:47.674Z,50.00
2022-08-08T12:46:28.672Z,48.90
2022-08-08T12:52:00.534Z,49.00
2022-08-08T12:54:36.665Z,51.70
2022-08-08T12:57:19.391Z,51.30
2022-08-08T13:00:03.492Z,44.20
2022-08-08T13:02:51.089Z,47.40
2022-08-08T13:05:26.693Z,45.70
2022-08-08T13:08:53.135Z,44.60
2022-08-08T13:12:27.112Z,43.10
2022-08-08T13:14:56.562Z,47.20
2022-08-08T13:18:08.262Z,45.60
2022-08-08T13:20:48.832Z,44.40
2022-08-08T13:23:36.955Z,47.60
2022-08-08T13:26:16.056Z,46.20
2022-08-08T13:28:46.045Z,43.60
2022-08-08T13:31:16.991Z,41.80
2022-08-08T13:33:46.433Z,41.10
2022-08-08T13:36:13.853Z,44.00
2022-08-08T13:38:40.909Z,39.00
2022-08-08T13:41:16.429Z,41.70
2022-08-08T13:43:47.568Z,43.30
2022-08-08T13:46:26.563Z,42.00
2022-08-08T13:49:11.643Z,44.40
2022-08-08T13:52:58.808Z,46.70
2022-08-08T13:55:29.188Z,45.20
2022-08-08T13:58:08.154Z,46.30
2022-08-08T14:00:40.007Z,45.00
2022-08-08T14:03:53.138Z,45.20
2022-08-08T14:06:32.844Z,44.80
2022-08-08T14:09:00.433Z,41.90
2022-08-08T14:11:52.445Z,39.70
2022-08-08T14:14:27.049Z,41.10
2022-08-08T14:16:53.986Z,42.20
2022-08-08T14:19:57.973Z,41.70
2022-08-08T14:22:37.218Z,46.50
2022-08-08T14:25:08.341Z,44.90
2022-08-08T14:27:42.014Z,41.70
2022-08-08T14:30:33.524Z,42.70
2022-08-08T14:33:00.580Z,42.40
2022-08-08T14:35:35.483Z,44.20
2022-08-08T14:38:09.540Z,43.10
2022-08-08T14:41:45.527Z,43.10
2022-08-08T14:44:29.284Z,46.60
2022-08-08T14:47:00.980Z,47.50
2022-08-08T14:49:33.679Z,48.20
2022-08-08T14:52:21.226Z,49.90
2022-08-08T14:54:48.182Z,45.30
2022-08-08T14:57:16.208Z,48.70
2022-08-08T14:59:50.693Z,46.40
2022-08-08T15:02:31.132Z,44.70
2022-08-08T15:05:10.396Z,42.80
2022-08-08T15:07:40.437Z,44.40
2022-08-08T15:10:10.876Z,46.40
2022-08-08T15:12:41.422Z,44.50
2022-08-08T15:15:09.857Z,44.40
2022-08-08T15:17:40.238Z,45.80
2022-08-08T15:20:13.995Z,44.90
2022-08-08T15:22:41.600Z,46.80
2022-08-08T15:25:17.598Z,46.20
2022-08-08T15:28:03.785Z,47.50
2022-08-08T15:30:58.529Z,50.20
2022-08-08T15:33:35.714Z,49.80
2022-08-08T15:36:06.293Z,49.80
2022-08-08T15:38:33.388Z,50.10
2022-08-08T15:40:59.657Z,50.40
2022-08-08T15:43:35.062Z,50.40
2022-08-08T15:46:03.803Z,50.60
2022-08-08T15:48:30.971Z,49.80
2022-08-08T15:51:00.429Z,48.50
2022-08-08T15:53:27.775Z,49.40
2022-08-08T15:55:59.516Z,47.60
2022-08-08T15:58:28.306Z,47.80
2022-08-08T16:00:58.321Z,48.10
2022-08-08T16:03:24.767Z,47.30
2022-08-08T16:06:01.073Z,48.30
2022-08-08T16:08:28.806Z,51.80
2022-08-08T16:13:11.080Z,50.80
2022-08-08T16:15:57.999Z,48.70
2022-08-08T16:18:27.644Z,48.80
2022-08-08T16:20:54.067Z,48.30
2022-08-08T16:23:31.899Z,50.20
2022-08-08T16:26:05.068Z,49.30
2022-08-08T16:28:44.471Z,51.20
2022-08-08T16:31:12.430Z,52.50
2022-08-08T16:33:40.228Z,49.80
2022-08-08T16:36:15.586Z,50.00
2022-08-08T16:38:47.128Z,51.30
2022-08-08T16:41:20.639Z,51.40
2022-08-08T16:43:50.929Z,52.10
2022-08-08T16:46:36.736Z,53.40
2022-08-08T16:49:11.930Z,54.50
2022-08-08T16:55:01.182Z,56.50
2022-08-08T16:58:14.413Z,58.20
2022-08-08T17:00:49.003Z,57.60
2022-08-08T17:03:24.272Z,57.60
2022-08-08T17:05:53.839Z,56.90
2022-08-08T17:08:23.690Z,57.90
2022-08-08T17:10:57.779Z,59.20
2022-08-08T17:13:41.168Z,59.20
2022-08-08T17:16:27.636Z,60.40
2022-08-08T17:18:56.478Z,58.20
2022-08-08T17:21:26.445Z,59.80
2022-08-08T17:24:00.041Z,62.00
2022-08-08T17:26:29.414Z,63.10
2022-08-08T17:29:08.886Z,62.50
2022-08-08T17:31:46.187Z,62.70
2022-08-08T17:34:49.637Z,65.20
2022-08-08T17:37:42.634Z,63.80
2022-08-08T17:40:19.570Z,64.50
2022-08-08T17:42:50.438Z,66.50
2022-08-08T17:45:22.802Z,66.30
2022-08-08T17:47:51.622Z,66.80
2022-08-08T17:50:17.888Z,71.00
2022-08-08T17:52:47.802Z,75.40
2022-08-08T17:56:05.736Z,79.10
2022-08-08T17:58:35.337Z,82.20
2022-08-08T18:01:07.835Z,89.00
2022-08-08T18:03:37.700Z,91.50
2022-08-08T18:06:20.009Z,95.40
2022-08-08T18:08:51.312Z,99.90
2022-08-08T18:11:22.182Z,99.90
2022-08-08T18:13:49.079Z,99.90
2022-08-08T18:16:17.139Z,99.90
2022-08-08T18:18:56.316Z,99.90
2022-08-08T18:21:59.071Z,99.90
2022-08-08T18:24:30.231Z,99.90
2022-08-08T18:26:57.734Z,99.90
2022-08-08T18:29:30.260Z,99.90
2022-08-08T18:32:05.321Z,99.90
2022-08-08T18:34:34.842Z,99.90
2022-08-08T18:37:04.853Z,99.90
2022-08-08T18:39:36.612Z,99.90
2022-08-08T18:42:11.611Z,99.90
2022-08-08T18:44:41.513Z,99.90
2022-08-08T18:47:07.925Z,99.90
2022-08-08T18:49:41.182Z,99.90
2022-08-08T18:52:24.056Z,99.90
2022-08-08T18:54:59.254Z,99.90
2022-08-08T18:57:31.686Z,99.90
2022-08-08T19:00:09.422Z,99.90
2022-08-08T19:02:48.172Z,99.90
2022-08-08T19:05:22.303Z,99.90
2022-08-08T19:07:52.537Z,99.90
2022-08-08T19:10:21.048Z,99.90
2022-08-08T19:12:53.202Z,99.90
2022-08-08T19:15:26.001Z,99.90
2022-08-08T19:21:23.017Z,99.90
2022-08-08T19:23:58.350Z,99.90
2022-08-08T19:26:29.431Z,99.90
2022-08-08T19:28:59.620Z,99.90
2022-08-08T19:31:31.652Z,99.90
2022-08-08T19:34:36.061Z,99.90
2022-08-08T19:37:07.294Z,99.90
2022-08-08T19:39:50.810Z,99.90
2022-08-08T19:42:19.287Z,99.90
2022-08-08T19:44:50.303Z,99.90
2022-08-08T19:47:23.441Z,99.90
2022-08-08T19:50:00.144Z,99.90
2022-08-08T19:52:36.959Z,99.90
2022-08-08T19:55:09.088Z,99.90
2022-08-08T19:57:42.378Z,99.90
2022-08-08T20:00:30.421Z,99.90
2022-08-08T20:03:14.591Z,99.90
2022-08-08T20:06:28.030Z,99.90
2022-08-08T20:08:56.369Z,99.90
2022-08-08T20:11:23.813Z,99.90
2022-08-08T20:14:12.831Z,99.90
2022-08-08T20:17:05.942Z,99.90
2022-08-08T20:19:42.327Z,99.90
2022-08-08T20:22:13.151Z,99.90
2022-08-08T20:24:49.452Z,99.90
2022-08-08T20:27:33.068Z,99.90
2022-08-08T20:30:52.864Z,99.90
2022-08-08T20:33:27.089Z,99.90
2022-08-08T20:36:56.893Z,99.90
2022-08-08T20:39:39.173Z,99.90
2022-08-08T20:42:29.463Z,99.90
2022-08-08T20:44:58.329Z,99.90
2022-08-08T20:47:36.059Z,99.90
2022-08-08T20:50:05.777Z,99.90
2022-08-08T20:52:33.440Z,99.90
2022-08-08T20:55:01.304Z,99.90
2022-08-08T20:57:43.676Z,99.90
2022-08-08T21:00:12.818Z,99.90
2022-08-08T21:02:42.815Z,99.90
2022-08-08T21:05:17.412Z,99.90
2022-08-08T21:08:36.404Z,99.90
2022-08-08T21:11:18.417Z,99.90
2022-08-08T21:14:34.754Z,99.90
2022-08-08T21:17:05.964Z,99.90
2022-08-08T21:20:17.350Z,99.90
2022-08-08T21:22:51.165Z,99.90
2022-08-08T21:25:19.370Z,99.90
2022-08-08T21:28:09.784Z,99.90
2022-08-08T21:30:49.502Z,99.90
2022-08-08T21:33:17.831Z,99.90
2022-08-08T21:36:14.147Z,99.90
2022-08-08T21:38:44.943Z,99.90
2022-08-08T21:41:28.753Z,99.90
2022-08-08T21:44:13.912Z,99.90
2022-08-08T21:48:06.842Z,99.90
2022-08-08T21:50:38.183Z,99.90
2022-08-08T21:54:31.635Z,99.90
2022-08-08T21:57:20.427Z,99.90
2022-08-08T22:00:03.359Z,99.90
2022-08-08T22:02:33.287Z,99.90
2022-08-08T22:05:01.749Z,99.90
2022-08-08T22:07:40.203Z,99.90
2022-08-08T22:10:09.713Z,99.90
2022-08-08T22:12:38.165Z,99.90
2022-08-08T22:15:07.354Z,99.90
2022-08-08T22:17:45.048Z,99.90
2022-08-08T22:20:23.562Z,99.90
2022-08-08T22:22:52.443Z,99.90
2022-08-08T22:25:25.481Z,99.90
2022-08-08T22:28:04.078Z,99.90
2022-08-08T22:31:29.437Z,99.90
2022-08-08T22:34:12.586Z,99.90
2022-08-08T22:36:41.074Z,99.90
2022-08-08T22:39:11.830Z,99.90
2022-08-08T22:41:46.033Z,99.90
2022-08-08T22:44:13.071Z,99.90
2022-08-08T22:46:40.109Z,99.90
2022-08-08T22:49:06.958Z,99.90
2022-08-08T22:51:42.569Z,99.90
2022-08-08T22:54:30.675Z,99.90
2022-08-08T22:57:20.337Z,99.90
2022-08-08T22:59:48.373Z,99.90
2022-08-08T23:02:27.929Z,99.90
2022-08-08T23:04:57.750Z,99.90
2022-08-08T23:07:56.826Z,99.90
2022-08-08T23:10:26.794Z,99.90
2022-08-08T23:12:53.774Z,99.90
2022-08-08T23:16:40.894Z,99.90
2022-08-08T23:19:11.139Z,99.90
2022-08-08T23:21:37.974Z,99.90
2022-08-08T23:24:06.880Z,99.90
2022-08-08T23:26:34.607Z,99.90
2022-08-08T23:29:02.105Z,99.90
2022-08-08T23:31:28.652Z,99.90
2022-08-08T23:34:17.980Z,99.90
2022-08-08T23:36:46.035Z,99.90
2022-08-08T23:39:12.461Z,99.90
2022-08-08T23:41:45.585Z,99.90
2022-08-08T23:44:14.676Z,99.90
2022-08-08T23:49:05.065Z,99.90
2022-08-08T23:52:03.510Z,99.90
2022-08-08T23:54:42.158Z,99.90
2022-08-08T23:57:26.519Z,99.90
